Time;durP1;ratioP1;P1;durP2;ratioP2;P2;SDS_P1;SDS_P2;PMS_P1;PMS_P2;Temp;Humidity;BMP_temperature;BMP_pressure;BME280_temperature;BME280_humidity;BME280_pressure;Samples;Min_cycle;Max_cycle;Signal;HPM_P1;HPM_P2
2024/01/09 00:01:30;;;;;;;0.90;0.90;;;;;;;-15.09;68.15;100847.12;105655;1256;109927;-68
2024/01/09 00:03:58;;;;;;;0.70;0.70;;;;;;;-15.14;68.02;100847.86;105826;1256;96594;-69
2024/01/09 00:06:26;;;;;;;0.80;0.80;;;;;;;-15.17;68.10;100850.70;105664;1257;107571;-69
2024/01/09 00:08:54;;;;;;;0.90;0.90;;;;;;;-15.23;68.08;100851.40;105263;1259;96603;-69
2024/01/09 00:11:22;;;;;;;0.70;0.70;;;;;;;-15.25;68.26;100854.66;105543;1255;97020;-68
2024/01/09 00:13:50;;;;;;;0.90;0.90;;;;;;;-15.29;68.02;100858.40;104968;1256;109905;-68
2024/01/09 00:16:18;;;;;;;0.80;0.80;;;;;;;-15.32;68.04;100857.82;105348;1266;96696;-67
2024/01/09 00:18:46;;;;;;;0.80;0.80;;;;;;;-15.35;67.95;100857.52;105369;1256;107458;-67
2024/01/09 00:21:14;;;;;;;0.90;0.90;;;;;;;-15.41;68.01;100854.90;105779;1254;96745;-68
2024/01/09 00:23:43;;;;;;;0.90;0.90;;;;;;;-15.43;68.11;100857.38;105485;1256;96591;-68
2024/01/09 00:26:11;;;;;;;0.80;0.80;;;;;;;-15.44;68.10;100854.73;105430;1264;108358;-68
2024/01/09 00:28:39;;;;;;;0.80;0.80;;;;;;;-15.47;68.08;100853.02;105561;1255;96527;-68
2024/01/09 00:31:07;;;;;;;0.90;0.90;;;;;;;-15.48;68.02;100851.09;105885;1256;107765;-70
2024/01/09 00:33:35;;;;;;;0.90;0.90;;;;;;;-15.50;68.02;100851.13;105648;1255;96494;-69
2024/01/09 00:36:03;;;;;;;0.80;0.80;;;;;;;-15.52;68.08;100855.64;105639;1255;97101;-69
2024/01/09 00:38:31;;;;;;;0.90;0.90;;;;;;;-15.52;68.07;100856.30;104829;1260;109998;-67
2024/01/09 00:40:59;;;;;;;1.00;1.00;;;;;;;-15.55;67.96;100859.05;105561;1256;96610;-68
2024/01/09 00:43:27;;;;;;;0.60;0.60;;;;;;;-15.60;67.79;100859.73;105610;1264;107935;-67
2024/01/09 00:45:54;;;;;;;0.80;0.80;;;;;;;-15.65;67.93;100867.23;105606;1253;97940;-70
2024/01/09 00:48:22;;;;;;;0.60;0.60;;;;;;;-15.68;67.75;100870.30;105588;1256;96806;-69
2024/01/09 00:50:50;;;;;;;0.80;0.80;;;;;;;-15.70;68.04;100870.70;105608;1256;108541;-68
2024/01/09 00:53:18;;;;;;;0.90;0.90;;;;;;;-15.74;67.76;100875.23;104931;1266;96612;-69
2024/01/09 00:55:47;;;;;;;0.80;0.80;;;;;;;-15.78;67.78;100877.33;105592;1264;107704;-72
2024/01/09 00:58:15;;;;;;;0.80;0.80;;;;;;;-15.82;67.75;100880.64;105673;1256;96648;-68
2024/01/09 01:00:42;;;;;;;0.80;0.80;;;;;;;-15.84;67.73;100884.09;105600;1265;96619;-68
2024/01/09 01:03:10;;;;;;;1.00;1.00;;;;;;;-15.90;67.62;100884.46;108642;1251;109928;-68
2024/01/09 01:05:38;;;;;;;0.80;0.80;;;;;;;-15.93;67.61;100886.48;108702;1253;95321;-66
2024/01/09 01:08:06;;;;;;;0.80;0.80;;;;;;;-15.94;67.61;100894.23;108717;1251;107603;-66
2024/01/09 01:10:34;;;;;;;0.70;0.70;;;;;;;-15.96;67.66;100893.94;108704;1251;94735;-67
2024/01/09 01:13:02;;;;;;;0.80;0.80;;;;;;;-15.95;67.55;100898.23;108720;1251;94584;-66
2024/01/09 01:15:30;;;;;;;0.60;0.60;;;;;;;-15.97;67.51;100893.67;108740;1251;109883;-66
2024/01/09 01:17:57;;;;;;;0.80;0.80;;;;;;;-16.00;67.62;100899.13;107514;1251;96602;-67
2024/01/09 01:20:25;;;;;;;0.90;0.90;;;;;;;-16.02;67.64;100896.81;105512;1251;108110;-68
2024/01/09 01:22:53;;;;;;;0.80;0.80;;;;;;;-16.02;67.37;100898.17;105711;1257;96626;-69
2024/01/09 01:25:21;;;;;;;0.80;0.80;;;;;;;-16.03;67.53;100902.32;105730;1256;96594;-69
2024/01/09 01:27:49;;;;;;;0.80;0.80;;;;;;;-16.05;67.55;100900.83;105496;1267;109959;-68
2024/01/09 01:30:18;;;;;;;0.80;0.80;;;;;;;-16.07;67.59;100903.46;105422;1263;96513;-68
2024/01/09 01:32:46;;;;;;;0.70;0.70;;;;;;;-16.08;67.65;100902.33;105748;1264;107686;-67
2024/01/09 01:35:14;;;;;;;0.90;0.90;;;;;;;-16.12;67.53;100906.35;105522;1255;96622;-68
2024/01/09 01:37:42;;;;;;;0.70;0.70;;;;;;;-16.14;67.62;100908.08;105057;1256;97492;-67
2024/01/09 01:40:10;;;;;;;0.70;0.70;;;;;;;-16.15;67.62;100909.21;105903;1266;109795;-68
2024/01/09 01:42:38;;;;;;;0.70;0.70;;;;;;;-16.16;67.64;100907.45;108665;1251;95460;-66
2024/01/09 01:45:16;;;;;;;0.90;0.90;;;;;;;-16.19;67.43;100910.84;105755;1251;107725;-67
2024/01/09 01:47:47;;;;;;;1.00;1.00;;;;;;;-16.25;67.58;100914.39;105650;1264;96599;-69
2024/01/09 01:50:16;;;;;;;0.90;0.90;;;;;;;-16.27;67.36;100918.95;105452;1254;96621;-67
2024/01/09 01:52:46;;;;;;;0.80;0.80;;;;;;;-16.29;67.36;100914.38;105225;1257;110049;-69
2024/01/09 01:55:17;;;;;;;0.90;0.90;;;;;;;-16.29;67.48;100913.21;105818;1251;97096;-68
2024/01/09 01:57:48;;;;;;;0.90;0.90;;;;;;;-16.30;67.69;100914.04;105722;1251;108396;-69
2024/01/09 02:00:17;;;;;;;0.90;0.90;;;;;;;-16.31;67.42;100915.83;105726;1257;97576;-67
2024/01/09 02:02:48;;;;;;;0.80;0.80;;;;;;;-16.36;67.48;100920.14;105902;1257;96916;-67
2024/01/09 02:05:17;;;;;;;0.90;0.90;;;;;;;-16.39;67.38;100917.36;105065;1262;109910;-68
2024/01/09 02:07:47;;;;;;;1.00;1.00;;;;;;;-16.41;67.38;100911.98;105550;1256;97195;-68
2024/01/09 02:10:14;;;;;;;0.90;0.90;;;;;;;-16.41;67.44;100910.07;105418;1257;107293;-67
2024/01/09 02:12:42;;;;;;;0.90;0.90;;;;;;;-16.43;67.55;100907.59;105343;1264;96618;-68
2024/01/09 02:15:10;;;;;;;0.90;0.90;;;;;;;-16.43;67.42;100906.89;105594;1255;96530;-67
2024/01/09 02:17:39;;;;;;;0.70;0.70;;;;;;;-16.44;67.35;100908.86;105500;1266;109891;-68
2024/01/09 02:20:10;;;;;;;1.00;1.00;;;;;;;-16.45;67.26;100905.73;105755;1264;96518;-68
2024/01/09 02:22:37;;;;;;;0.80;0.80;;;;;;;-16.48;67.37;100908.27;105380;1266;108104;-68
2024/01/09 02:25:06;;;;;;;0.90;0.90;;;;;;;-16.51;67.42;100912.88;105484;1254;96713;-68
2024/01/09 02:28:02;;;;;;;0.70;0.70;;;;;;;-16.50;67.59;100911.52;105587;1256;97470;-69
2024/01/09 02:30:30;;;;;;;1.00;1.00;;;;;;;-16.53;67.35;100916.13;105357;1256;109521;-69
2024/01/09 02:32:59;;;;;;;1.00;1.00;;;;;;;-16.56;67.30;100920.35;105587;1256;97629;-68
2024/01/09 02:35:27;;;;;;;1.10;1.10;;;;;;;-16.54;67.42;100921.65;105545;1251;106377;-68
2024/01/09 02:37:55;;;;;;;0.90;0.90;;;;;;;-16.55;67.35;100925.64;105299;1251;96684;-68
2024/01/09 02:40:23;;;;;;;1.00;1.00;;;;;;;-16.59;67.35;100921.98;105362;1264;98221;-67
2024/01/09 02:42:52;;;;;;;0.90;0.90;;;;;;;-16.62;67.44;100927.08;105420;1251;109852;-69
2024/01/09 02:45:20;;;;;;;1.00;1.00;;;;;;;-16.64;67.38;100925.45;105487;1258;96697;-70
2024/01/09 02:47:47;;;;;;;0.90;0.90;;;;;;;-16.68;67.36;100924.29;105617;1254;107601;-69
2024/01/09 02:50:16;;;;;;;0.90;0.90;;;;;;;-16.73;67.20;100928.38;105704;1265;97351;-68
2024/01/09 02:52:44;;;;;;;1.00;1.00;;;;;;;-16.75;67.34;100929.95;105501;1251;96999;-68
2024/01/09 02:55:12;;;;;;;0.90;0.90;;;;;;;-16.74;67.44;100932.02;105378;1254;109895;-69
2024/01/09 02:57:40;;;;;;;0.70;0.70;;;;;;;-16.77;67.35;100925.73;105582;1257;96656;-69
2024/01/09 03:00:09;;;;;;;0.90;0.90;;;;;;;-16.77;67.33;100927.09;105647;1257;107697;-68
2024/01/09 03:02:37;;;;;;;0.90;0.90;;;;;;;-16.77;67.24;100925.73;105424;1258;96599;-66
2024/01/09 03:05:06;;;;;;;1.00;1.00;;;;;;;-16.77;67.34;100925.73;105356;1264;97950;-68
2024/01/09 03:07:35;;;;;;;1.00;1.00;;;;;;;-16.77;67.32;100926.41;105431;1251;109859;-68
2024/01/09 03:10:03;;;;;;;0.90;0.90;;;;;;;-16.79;67.30;100928.02;105549;1257;96599;-67
2024/01/09 03:12:31;;;;;;;0.90;0.90;;;;;;;-16.78;67.48;100930.45;105559;1254;107861;-69
2024/01/09 03:14:59;;;;;;;1.10;1.10;;;;;;;-16.79;67.32;100929.69;105716;1251;97404;-68
2024/01/09 03:17:27;;;;;;;1.00;1.00;;;;;;;-16.78;67.30;100929.23;105482;1256;97943;-68
2024/01/09 03:19:55;;;;;;;0.90;0.90;;;;;;;-16.77;67.40;100930.70;105275;1257;110089;-68
2024/01/09 03:22:23;;;;;;;0.80;0.80;;;;;;;-16.74;67.30;100932.09;105625;1254;97926;-66
2024/01/09 03:24:50;;;;;;;0.80;0.80;;;;;;;-16.75;67.47;100937.95;105237;1256;107609;-68
2024/01/09 03:27:18;;;;;;;0.80;0.80;;;;;;;-16.75;67.23;100941.30;105175;1251;98035;-68
2024/01/09 03:29:46;;;;;;;0.90;0.90;;;;;;;-16.77;67.38;100936.48;105325;1251;97925;-67
2024/01/09 03:32:14;;;;;;;0.90;0.90;;;;;;;-16.76;67.44;100939.59;105284;1254;108515;-70
2024/01/09 03:34:42;;;;;;;0.90;0.90;;;;;;;-16.76;67.28;100940.75;105504;1256;96603;-70
2024/01/09 03:37:11;;;;;;;0.80;0.80;;;;;;;-16.80;67.35;100945.77;105571;1264;107299;-68
2024/01/09 03:39:39;;;;;;;1.00;1.00;;;;;;;-16.83;67.33;100946.36;105396;1258;96602;-67
2024/01/09 03:42:06;;;;;;;1.00;1.00;;;;;;;-16.86;67.10;100952.80;105565;1257;96638;-67
2024/01/09 03:44:34;;;;;;;0.90;0.90;;;;;;;-16.88;67.23;100952.33;105359;1257;109461;-69
2024/01/09 03:47:02;;;;;;;1.00;1.00;;;;;;;-16.88;67.30;100953.37;105515;1255;96576;-66
2024/01/09 03:49:30;;;;;;;0.80;0.80;;;;;;;-16.87;67.35;100955.45;105629;1254;107640;-68
2024/01/09 03:51:58;;;;;;;0.80;0.80;;;;;;;-16.90;67.25;100952.70;105406;1258;96600;-68
2024/01/09 03:54:26;;;;;;;1.00;1.00;;;;;;;-16.91;67.33;100964.35;105713;1256;96709;-69
2024/01/09 03:56:54;;;;;;;0.90;0.90;;;;;;;-16.96;67.19;100973.57;105403;1255;109941;-68
2024/01/09 03:59:22;;;;;;;0.90;0.90;;;;;;;-16.96;67.14;100970.83;105342;1256;97920;-67
2024/01/09 04:01:49;;;;;;;1.00;1.00;;;;;;;-16.98;67.24;100968.50;105638;1254;107596;-68
2024/01/09 04:04:17;;;;;;;0.90;0.90;;;;;;;-16.98;67.24;100964.44;105464;1261;96660;-68
2024/01/09 04:06:45;;;;;;;1.10;1.10;;;;;;;-16.98;67.24;100966.09;105707;1254;96675;-68
2024/01/09 04:09:13;;;;;;;1.00;1.00;;;;;;;-17.00;67.41;100972.30;105419;1251;109600;-68
2024/01/09 04:11:45;;;;;;;0.90;0.90;;;;;;;-16.97;67.09;100969.21;105268;1257;96689;-68
2024/01/09 04:14:13;;;;;;;1.10;1.10;;;;;;;-16.99;67.36;100973.68;105299;1273;106636;-67
2024/01/09 04:16:46;;;;;;;0.90;0.90;;;;;;;-17.00;67.38;100973.45;105458;1257;96614;-69
2024/01/09 04:19:14;;;;;;;0.80;0.80;;;;;;;-17.00;67.17;100977.83;105627;1254;96548;-68
2024/01/09 04:21:42;;;;;;;0.70;0.70;;;;;;;-17.00;67.23;100976.81;105582;1251;109652;-67
2024/01/09 04:24:10;;;;;;;1.00;1.00;;;;;;;-17.00;67.16;100975.14;105508;1251;97434;-68
2024/01/09 04:26:38;;;;;;;1.00;1.00;;;;;;;-17.00;67.24;100979.38;105486;1257;107594;-67
2024/01/09 04:29:06;;;;;;;1.00;1.00;;;;;;;-17.00;67.21;100982.42;105550;1256;96610;-69
2024/01/09 04:31:33;;;;;;;0.90;0.90;;;;;;;-17.01;67.22;100987.14;105372;1254;96682;-68
2024/01/09 04:34:02;;;;;;;0.90;0.90;;;;;;;-17.01;67.13;100983.25;105382;1252;109510;-67
2024/01/09 04:36:30;;;;;;;1.00;1.00;;;;;;;-17.01;67.24;100986.62;105585;1254;96531;-67
2024/01/09 04:39:00;;;;;;;0.90;0.90;;;;;;;-17.01;67.25;100989.83;105583;1254;107055;-69
2024/01/09 04:41:28;;;;;;;0.90;0.90;;;;;;;-17.04;67.18;100988.09;105386;1267;96700;-68
2024/01/09 04:43:56;;;;;;;1.00;1.00;;;;;;;-17.05;67.15;100997.38;105425;1257;97451;-69
2024/01/09 04:46:24;;;;;;;1.00;1.00;;;;;;;-17.04;67.19;101000.33;105670;1256;109864;-68
2024/01/09 04:48:52;;;;;;;1.00;1.00;;;;;;;-17.05;67.21;100998.73;105305;1257;96684;-68
2024/01/09 04:51:20;;;;;;;0.90;0.90;;;;;;;-17.06;67.13;101000.35;105391;1251;106874;-67
2024/01/09 04:53:48;;;;;;;0.90;0.90;;;;;;;-17.05;67.30;101005.17;105531;1257;97919;-66
2024/01/09 04:56:16;;;;;;;1.00;1.00;;;;;;;-17.06;67.19;101011.38;105337;1254;96734;-68
2024/01/09 04:58:44;;;;;;;0.80;0.80;;;;;;;-17.08;67.05;101015.16;105648;1256;110597;-69
2024/01/09 05:01:12;;;;;;;0.90;0.90;;;;;;;-17.09;67.16;101014.39;105694;1254;96603;-68
2024/01/09 05:03:45;;;;;;;0.90;0.90;;;;;;;-17.10;66.90;101019.23;105656;1255;107587;-69
2024/01/09 05:06:17;;;;;;;1.00;1.00;;;;;;;-17.13;66.98;101019.88;105525;1257;96523;-72
2024/01/09 05:08:46;;;;;;;0.90;0.90;;;;;;;-17.17;67.02;101024.39;105886;1254;96662;-73
2024/01/09 05:11:15;;;;;;;1.10;1.10;;;;;;;-17.17;66.97;101028.60;105784;1257;111786;-73
2024/01/09 05:13:47;;;;;;;1.00;1.00;;;;;;;-17.18;67.03;101031.91;105231;1257;97528;-72
2024/01/09 05:16:15;;;;;;;1.00;1.00;;;;;;;-17.21;66.98;101034.60;105539;1251;105396;-72
2024/01/09 05:18:44;;;;;;;1.00;1.00;;;;;;;-17.26;67.04;101034.27;105170;1251;96752;-73
2024/01/09 05:21:13;;;;;;;0.90;0.90;;;;;;;-17.27;67.19;101037.90;105506;1256;97868;-73
2024/01/09 05:23:40;;;;;;;1.00;1.00;;;;;;;-17.29;67.12;101039.67;105301;1256;110539;-72
2024/01/09 05:26:08;;;;;;;0.90;0.90;;;;;;;-17.31;67.14;101037.64;105556;1255;96594;-72
2024/01/09 05:28:37;;;;;;;1.10;1.10;;;;;;;-17.34;66.85;101043.73;105595;1267;105858;-71
2024/01/09 05:31:05;;;;;;;1.00;1.00;;;;;;;-17.38;66.88;101046.67;105735;1257;96657;-67
2024/01/09 05:33:32;;;;;;;1.20;1.20;;;;;;;-17.42;66.80;101055.20;105484;1256;96787;-68
2024/01/09 05:36:01;;;;;;;1.10;1.10;;;;;;;-17.43;67.01;101056.14;105521;1251;109972;-69
2024/01/09 05:38:29;;;;;;;0.90;0.90;;;;;;;-17.43;66.74;101055.34;105006;1255;96603;-69
2024/01/09 05:40:57;;;;;;;0.90;0.90;;;;;;;-17.47;66.84;101057.23;105495;1255;107272;-69
2024/01/09 05:43:25;;;;;;;1.00;1.00;;;;;;;-17.49;66.84;101059.39;105256;1256;97969;-67
2024/01/09 05:45:52;;;;;;;1.10;1.10;;;;;;;-17.48;66.97;101062.02;105694;1255;97904;-69
2024/01/09 05:48:20;;;;;;;1.00;1.00;;;;;;;-17.48;67.02;101056.29;105641;1251;109736;-72
2024/01/09 05:50:48;;;;;;;1.00;1.00;;;;;;;-17.48;66.98;101066.30;105747;1256;96506;-73
2024/01/09 05:53:16;;;;;;;1.00;1.00;;;;;;;-17.49;66.96;101068.27;105491;1257;107632;-75
2024/01/09 05:55:44;;;;;;;1.10;1.10;;;;;;;-17.49;66.97;101071.31;105387;1257;97045;-73
2024/01/09 05:58:12;;;;;;;1.00;1.00;;;;;;;-17.46;66.99;101070.83;105667;1255;97023;-72
2024/01/09 06:00:40;;;;;;;1.00;1.00;;;;;;;-17.45;67.01;101075.45;105609;1255;109876;-71
2024/01/09 06:03:08;;;;;;;1.10;1.10;;;;;;;-17.45;66.96;101078.05;105733;1267;96588;-72
2024/01/09 06:05:36;;;;;;;0.90;0.90;;;;;;;-17.43;67.00;101076.15;105691;1251;107620;-69
2024/01/09 06:08:05;;;;;;;1.20;1.20;;;;;;;-17.40;67.21;101080.59;105522;1258;97048;-71
2024/01/09 06:10:32;;;;;;;0.90;0.90;;;;;;;-17.43;66.77;101078.56;105582;1256;96646;-70
2024/01/09 06:13:00;;;;;;;1.00;1.00;;;;;;;-17.44;66.94;101083.20;105864;1256;110157;-69
2024/01/09 06:15:28;;;;;;;1.20;1.20;;;;;;;-17.42;66.95;101083.18;105792;1255;97918;-70
2024/01/09 06:17:56;;;;;;;0.70;0.70;;;;;;;-17.43;66.71;101084.31;105842;1251;107643;-71
2024/01/09 06:20:24;;;;;;;1.10;1.10;;;;;;;-17.42;66.86;101089.81;105506;1257;96689;-73
2024/01/09 06:22:52;;;;;;;1.10;1.10;;;;;;;-17.38;67.14;101094.98;105806;1251;98262;-73
2024/01/09 06:25:20;;;;;;;1.20;1.20;;;;;;;-17.33;67.06;101095.31;105674;1267;107820;-73
2024/01/09 06:27:48;;;;;;;1.20;1.20;;;;;;;-17.29;67.05;101100.48;105887;1250;97956;-73
2024/01/09 06:30:16;;;;;;;0.80;0.80;;;;;;;-17.30;67.03;101105.18;105275;1257;107605;-74
2024/01/09 06:32:44;;;;;;;1.00;1.00;;;;;;;-17.32;66.95;101108.96;105419;1257;96617;-73
2024/01/09 06:35:12;;;;;;;1.10;1.10;;;;;;;-17.32;66.79;101109.64;105601;1255;97102;-73
2024/01/09 06:37:42;;;;;;;1.10;1.10;;;;;;;-17.31;66.94;101114.13;105461;1255;109479;-74
2024/01/09 06:40:10;;;;;;;1.00;1.00;;;;;;;-17.28;66.96;101114.18;105191;1256;97752;-71
2024/01/09 06:42:39;;;;;;;1.00;1.00;;;;;;;-17.27;66.91;101116.95;105241;1251;107016;-72
2024/01/09 06:45:08;;;;;;;1.10;1.10;;;;;;;-17.27;66.85;101117.67;105683;1256;96624;-74
2024/01/09 06:47:36;;;;;;;1.30;1.30;;;;;;;-17.25;67.00;101122.89;105644;1254;97933;-73
2024/01/09 06:50:05;;;;;;;1.00;1.00;;;;;;;-17.25;67.03;101123.23;105537;1250;109641;-73
2024/01/09 06:52:47;;;;;;;1.00;1.00;;;;;;;-17.21;67.04;101125.23;105800;1254;96613;-73
2024/01/09 06:55:17;;;;;;;1.00;1.00;;;;;;;-17.18;67.02;101126.58;105699;1254;107688;-74
2024/01/09 06:57:45;;;;;;;1.00;1.00;;;;;;;-17.17;66.93;101130.74;105746;1256;97042;-70
2024/01/09 07:00:13;;;;;;;0.90;0.90;;;;;;;-17.15;67.13;101132.41;105664;1257;96769;-70
2024/01/09 07:02:42;;;;;;;1.10;1.10;;;;;;;-17.11;67.28;101134.27;105753;1254;109858;-69
2024/01/09 07:05:10;;;;;;;1.10;1.10;;;;;;;-17.08;67.11;101133.23;105368;1249;97799;-69
2024/01/09 07:07:38;;;;;;;1.00;1.00;;;;;;;-17.06;67.19;101128.46;105449;1251;107617;-69
2024/01/09 07:10:17;;;;;;;0.90;0.90;;;;;;;-17.05;67.32;101130.40;105477;1251;97423;-70
2024/01/09 07:12:45;;;;;;;1.00;1.00;;;;;;;-17.04;67.10;101132.13;105624;1251;97190;-70
2024/01/09 07:15:14;;;;;;;1.10;1.10;;;;;;;-17.00;67.16;101133.62;105516;1254;109896;-70
2024/01/09 07:17:45;;;;;;;0.90;0.90;;;;;;;-16.99;67.15;101135.77;105572;1254;97897;-69
2024/01/09 07:20:15;;;;;;;0.90;0.90;;;;;;;-16.97;67.29;101138.27;105497;1264;108259;-71
2024/01/09 07:22:43;;;;;;;1.00;1.00;;;;;;;-16.92;67.30;101138.27;105530;1254;96714;-70
2024/01/09 07:25:15;;;;;;;0.90;0.90;;;;;;;-16.87;67.46;101143.67;105454;1255;96680;-69
2024/01/09 07:27:43;;;;;;;0.90;0.90;;;;;;;-16.84;67.31;101137.95;105350;1256;109883;-70
2024/01/09 07:30:12;;;;;;;1.00;1.00;;;;;;;-16.81;67.32;101140.06;105605;1254;97916;-70
2024/01/09 07:32:40;;;;;;;0.90;0.90;;;;;;;-16.74;67.46;101138.14;105324;1250;107641;-69
2024/01/09 07:35:08;;;;;;;1.00;1.00;;;;;;;-16.68;67.51;101138.71;105778;1254;96629;-71
2024/01/09 07:37:36;;;;;;;0.80;0.80;;;;;;;-16.63;67.42;101134.98;105478;1256;96749;-70
2024/01/09 07:40:05;;;;;;;1.00;1.00;;;;;;;-16.58;67.37;101136.86;105732;1254;109407;-70
2024/01/09 07:42:32;;;;;;;0.90;0.90;;;;;;;-16.54;67.42;101140.02;105435;1250;96602;-69
2024/01/09 07:45:12;;;;;;;1.00;1.00;;;;;;;-16.49;67.44;101143.11;105190;1256;108525;-70
2024/01/09 07:47:40;;;;;;;0.80;0.80;;;;;;;-16.46;67.50;101141.30;105343;1250;96735;-70
2024/01/09 07:50:08;;;;;;;1.00;1.00;;;;;;;-16.42;67.48;101143.71;105573;1250;96968;-70
2024/01/09 07:52:36;;;;;;;0.90;0.90;;;;;;;-16.37;67.53;101150.39;105283;1254;110318;-70
2024/01/09 07:55:04;;;;;;;0.90;0.90;;;;;;;-16.32;67.68;101149.04;105555;1254;97418;-70
2024/01/09 07:57:33;;;;;;;1.10;1.10;;;;;;;-16.24;67.66;101147.83;105535;1251;107689;-70
2024/01/09 08:00:01;;;;;;;0.90;0.90;;;;;;;-16.19;67.70;101149.25;105417;1251;96693;-70
2024/01/09 08:02:29;;;;;;;1.00;1.00;;;;;;;-16.13;67.55;101153.34;105611;1254;96998;-70
2024/01/09 08:04:57;;;;;;;1.00;1.00;;;;;;;-16.07;67.85;101154.46;105310;1250;109884;-70
2024/01/09 08:07:25;;;;;;;0.80;0.80;;;;;;;-15.99;67.91;101151.05;105308;1255;96513;-70
2024/01/09 08:09:53;;;;;;;0.80;0.80;;;;;;;-15.91;67.85;101155.36;105446;1251;107502;-71
2024/01/09 08:12:20;;;;;;;0.80;0.80;;;;;;;-15.82;68.09;101155.27;105411;1255;96614;-70
2024/01/09 08:14:49;;;;;;;0.90;0.90;;;;;;;-15.74;67.95;101154.63;105536;1256;96930;-70
2024/01/09 08:17:17;;;;;;;0.90;0.90;;;;;;;-15.68;67.98;101154.79;105523;1254;110504;-71
2024/01/09 08:19:45;;;;;;;0.90;0.90;;;;;;;-15.62;67.90;101152.13;105298;1251;97606;-70
2024/01/09 08:22:13;;;;;;;0.70;0.70;;;;;;;-15.54;67.98;101152.65;105457;1254;107670;-69
2024/01/09 08:24:41;;;;;;;0.90;0.90;;;;;;;-15.47;68.11;101156.36;105517;1256;96597;-70
2024/01/09 08:27:09;;;;;;;0.80;0.80;;;;;;;-15.38;68.28;101160.19;105138;1256;97042;-69
2024/01/09 08:29:37;;;;;;;0.70;0.70;;;;;;;-15.27;68.36;101155.77;105535;1255;109964;-70
2024/01/09 08:32:05;;;;;;;0.80;0.80;;;;;;;-15.19;68.26;101157.32;105621;1254;97564;-70
2024/01/09 08:34:33;;;;;;;0.70;0.70;;;;;;;-15.12;68.18;101156.90;105553;1254;107126;-70
2024/01/09 08:37:01;;;;;;;0.70;0.70;;;;;;;-15.08;68.27;101162.76;105743;1254;96616;-70
2024/01/09 08:39:29;;;;;;;0.80;0.80;;;;;;;-15.05;68.20;101162.80;105466;1254;98657;-70
2024/01/09 08:41:56;;;;;;;0.80;0.80;;;;;;;-14.98;68.29;101162.42;106803;1252;110098;-71
2024/01/09 08:44:26;;;;;;;0.60;0.60;;;;;;;-14.91;68.26;101164.39;105497;1254;96516;-70
2024/01/09 08:46:55;;;;;;;0.70;0.70;;;;;;;-14.83;68.32;101165.69;105312;1267;107710;-70
2024/01/09 08:49:22;;;;;;;0.70;0.70;;;;;;;-14.78;68.34;101164.48;105565;1264;96604;-70
2024/01/09 08:51:50;;;;;;;0.80;0.80;;;;;;;-14.70;68.54;101168.41;105696;1251;96613;-70
2024/01/09 08:54:18;;;;;;;0.70;0.70;;;;;;;-14.60;68.37;101167.98;105317;1256;109728;-71
2024/01/09 08:56:47;;;;;;;0.70;0.70;;;;;;;-14.54;68.53;101166.14;105455;1251;96844;-70
2024/01/09 08:59:15;;;;;;;0.70;0.70;;;;;;;-14.48;68.60;101166.83;105603;1250;105998;-70
2024/01/09 09:01:43;;;;;;;0.70;0.70;;;;;;;-14.44;68.57;101164.00;105488;1254;97934;-70
2024/01/09 09:04:11;;;;;;;0.60;0.60;;;;;;;-14.42;68.55;101162.98;105571;1252;96601;-69
2024/01/09 09:06:39;;;;;;;0.60;0.60;;;;;;;-14.34;68.56;101162.77;105626;1254;109973;-70
2024/01/09 09:09:09;;;;;;;0.80;0.80;;;;;;;-14.32;68.44;101162.02;105298;1254;96627;-70
2024/01/09 09:11:37;;;;;;;0.50;0.50;;;;;;;-14.30;68.54;101157.88;105534;1252;107307;-70
2024/01/09 09:14:04;;;;;;;0.70;0.70;;;;;;;-14.30;68.41;101153.98;105630;1251;96665;-70
2024/01/09 09:16:33;;;;;;;0.60;0.60;;;;;;;-14.37;68.38;101150.64;105384;1254;96604;-70
2024/01/09 09:19:02;;;;;;;0.70;0.70;;;;;;;-14.45;68.23;101147.11;105625;1252;109891;-69
2024/01/09 09:21:30;;;;;;;0.50;0.50;;;;;;;-14.54;68.10;101146.36;105603;1271;96660;-69
2024/01/09 09:23:58;;;;;;;0.70;0.70;;;;;;;-14.58;68.26;101143.77;105397;1254;107582;-70
2024/01/09 09:26:27;;;;;;;0.60;0.60;;;;;;;-14.60;68.23;101143.63;105646;1254;97561;-71
2024/01/09 09:28:55;;;;;;;0.60;0.60;;;;;;;-14.59;68.35;101141.27;105561;1252;96855;-70
2024/01/09 09:31:38;;;;;;;0.50;0.50;;;;;;;-14.47;68.65;101138.77;105475;1254;108463;-70
2024/01/09 09:34:07;;;;;;;0.70;0.70;;;;;;;-14.39;68.78;101135.54;105506;1256;96621;-70
2024/01/09 09:36:35;;;;;;;0.70;0.70;;;;;;;-14.35;68.59;101130.46;105483;1254;107661;-70
2024/01/09 09:39:03;;;;;;;0.60;0.60;;;;;;;-14.28;68.72;101129.91;105526;1254;96927;-71
2024/01/09 09:41:32;;;;;;;0.60;0.60;;;;;;;-14.20;68.63;101128.48;105552;1251;96607;-70
2024/01/09 09:44:06;;;;;;;0.60;0.60;;;;;;;-14.19;68.60;101125.32;105574;1253;109967;-70
2024/01/09 09:46:34;;;;;;;0.40;0.40;;;;;;;-14.11;68.76;101123.73;105363;1251;97008;-70
2024/01/09 09:49:03;;;;;;;0.50;0.50;;;;;;;-13.98;68.98;101124.86;105463;1255;107638;-69
2024/01/09 09:51:31;;;;;;;0.50;0.50;;;;;;;-13.85;68.99;101123.53;105475;1250;96747;-70
2024/01/09 09:54:01;;;;;;;0.60;0.60;;;;;;;-13.73;69.12;101119.98;105515;1251;97572;-71
2024/01/09 09:56:31;;;;;;;0.60;0.60;;;;;;;-13.63;69.07;101118.84;105520;1254;109587;-71
2024/01/09 09:58:59;;;;;;;0.50;0.50;;;;;;;-13.55;69.19;101120.16;105513;1250;96559;-69
2024/01/09 10:01:28;;;;;;;0.50;0.50;;;;;;;-13.47;69.15;101112.60;105288;1254;107693;-71
2024/01/09 10:04:02;;;;;;;0.60;0.60;;;;;;;-13.37;69.25;101111.23;105462;1251;97044;-70
2024/01/09 10:06:31;;;;;;;0.70;0.70;;;;;;;-13.26;69.35;101105.58;105579;1252;96597;-70
2024/01/09 10:09:01;;;;;;;0.60;0.60;;;;;;;-13.14;69.35;101106.40;105635;1254;109435;-70
2024/01/09 10:11:32;;;;;;;0.70;0.70;;;;;;;-13.04;69.35;101106.80;105476;1254;96603;-71
2024/01/09 10:14:00;;;;;;;0.60;0.60;;;;;;;-12.92;69.51;101098.90;105441;1254;107637;-71
2024/01/09 10:16:28;;;;;;;0.60;0.60;;;;;;;-12.80;69.47;101098.20;105648;1254;96593;-70
2024/01/09 10:18:56;;;;;;;0.60;0.60;;;;;;;-12.69;69.56;101094.13;105608;1250;98226;-70
2024/01/09 10:21:24;;;;;;;0.70;0.70;;;;;;;-12.60;69.57;101093.26;105414;1250;109535;-70
2024/01/09 10:23:54;;;;;;;0.60;0.60;;;;;;;-12.49;69.75;101092.65;105396;1250;96562;-72
2024/01/09 10:26:23;;;;;;;0.60;0.60;;;;;;;-12.40;69.61;101096.01;105514;1254;107632;-71
2024/01/09 10:28:51;;;;;;;0.50;0.50;;;;;;;-12.32;69.36;101092.34;105502;1250;96734;-72
2024/01/09 10:31:20;;;;;;;0.50;0.50;;;;;;;-12.32;69.36;101092.35;105670;1251;96879;-70
2024/01/09 10:33:48;;;;;;;0.50;0.50;;;;;;;-12.29;69.29;101090.80;105541;1255;109954;-71
2024/01/09 10:36:17;;;;;;;0.60;0.60;;;;;;;-12.20;69.45;101094.34;105571;1254;96626;-70
2024/01/09 10:38:46;;;;;;;0.50;0.50;;;;;;;-12.12;69.58;101091.99;105693;1257;107722;-71
2024/01/09 10:41:18;;;;;;;0.60;0.60;;;;;;;-12.07;69.48;101089.85;105615;1251;96620;-71
2024/01/09 10:43:49;;;;;;;0.40;0.40;;;;;;;-12.02;69.42;101089.60;105451;1250;96518;-70
2024/01/09 10:46:22;;;;;;;0.50;0.50;;;;;;;-11.94;69.65;101088.10;105607;1254;109926;-72
2024/01/09 10:48:52;;;;;;;0.60;0.60;;;;;;;-11.83;69.60;101087.42;105582;1252;96593;-71
2024/01/09 10:51:23;;;;;;;0.50;0.50;;;;;;;-11.79;69.72;101084.70;105724;1251;107557;-70
2024/01/09 10:53:52;;;;;;;0.50;0.50;;;;;;;-11.76;69.68;101088.11;108804;1250;94294;-71
2024/01/09 10:56:23;;;;;;;0.50;0.50;;;;;;;-11.72;69.81;101086.79;106300;1254;96628;-70
2024/01/09 10:58:51;;;;;;;0.50;0.50;;;;;;;-11.67;69.81;101085.83;105609;1250;109769;-71
2024/01/09 11:03:33;;;;;;;0.60;0.60;;;;;;;-11.54;69.87;101079.13;102209;1297;636122;-72
2024/01/09 11:06:03;;;;;;;0.40;0.40;;;;;;;-11.48;69.98;101080.23;104652;1270;94318;-70
2024/01/09 11:08:34;;;;;;;0.40;0.40;;;;;;;-11.44;70.01;101077.20;105037;1260;94331;-72
2024/01/09 11:11:14;;;;;;;0.50;0.50;;;;;;;-11.37;70.03;101069.66;104887;1265;106948;-71
2024/01/09 11:13:46;;;;;;;0.60;0.60;;;;;;;-11.32;70.00;101070.75;105012;1263;95603;-72
2024/01/09 11:16:18;;;;;;;0.50;0.50;;;;;;;-11.31;69.94;101069.40;105047;1257;180422;-71